Thomson, New York
Current Conditions -  °F | °C
As of 12:53 AM on Friday 28 Nov 2014 (Local Time) from KGFL Reporting Station
Light Snow Light Snow  
Wind Chill: -3°   Ceiling: 3200
Heat Index: -3°   Visibility: 3mi
Dew Point: -4°   Wind: 0mph
Humidity: 92%   Direction: NA
Pressure: 30.03"   Gusts: NA
Location:  43.09°N, 73.5018°W
Report Text: KGFL 280553Z AUTO 00000KT 3SM -SN BR FEW024 OVC032 M03/M04 A3003 RMK AO2 SLP178 P0000 60002 T10331044 11017 21033 58007
Loading
Personal Weather Stations






























Interactive Weather Map New forecast layout! Learn more

10-Day Weather Forecast

Advertisements
Track Severe Weather on mobile